Time,TemperatureF,DewpointF,PressureIn,WindDirection,WindDirectionDegrees,WindSpeedMPH,WindSpeedGustMPH,Humidity,HourlyPrecipIn,Conditions,Clouds,dailyrainin,SoftwareType,DateUTC
2013-03-01 00:00:00,16.0,-99.9,-100.00,West,263,14.0,29.0,-999,-99.99,,,-99.99,,2013-03-01 07:00:00,
2013-03-01 00:52:00,16.0,-99.9,-100.00,West,263,14.0,29.0,-999,-99.99,,,-99.99,,2013-03-01 07:52:00,
2013-03-01 01:00:00,16.0,-99.9,-100.00,WSW,250,27.0,28.0,-999,-99.99,,,-99.99,,2013-03-01 08:00:00,
2013-03-01 01:53:00,16.0,-99.9,-100.00,WSW,250,27.0,28.0,-999,-99.99,,,-99.99,,2013-03-01 08:53:00,
2013-03-01 02:00:00,18.0,-99.9,-100.00,West,262,25.0,30.0,-999,-99.99,,,-99.99,,2013-03-01 09:00:00,
2013-03-01 02:53:00,18.0,-99.9,-100.00,West,262,25.0,30.0,-999,-99.99,,,-99.99,,2013-03-01 09:53:00,
2013-03-01 03:00:00,18.0,-99.9,-100.00,WSW,247,27.0,36.0,-999,-99.99,,,-99.99,,2013-03-01 10:00:00,
2013-03-01 03:53:00,18.0,-99.9,-100.00,WSW,247,27.0,36.0,-999,-99.99,,,-99.99,,2013-03-01 10:53:00,
2013-03-01 04:00:00,16.0,-99.9,-100.00,WSW,241,23.0,31.0,-999,-99.99,,,-99.99,,2013-03-01 11:00:00,
2013-03-01 04:53:00,16.0,-99.9,-100.00,WSW,241,23.0,31.0,-999,-99.99,,,-99.99,,2013-03-01 11:53:00,
2013-03-01 05:00:00,14.0,-99.9,-100.00,West,263,22.0,27.0,-999,-99.99,,,-99.99,,2013-03-01 12:00:00,
2013-03-01 05:52:00,14.0,-99.9,-100.00,West,263,22.0,27.0,-999,-99.99,,,-99.99,,2013-03-01 12:52:00,
2013-03-01 06:00:00,12.0,-99.9,-100.00,West,268,16.0,16.0,-999,-99.99,,,-99.99,,2013-03-01 13:00:00,
2013-03-01 06:52:00,12.0,-99.9,-100.00,West,268,16.0,16.0,-999,-99.99,,,-99.99,,2013-03-01 13:52:00,
2013-03-01 07:00:00,16.0,-99.9,-100.00,WSW,244,20.0,24.0,-999,-99.99,,,-99.99,,2013-03-01 14:00:00,
2013-03-01 07:52:00,16.0,-99.9,-100.00,WSW,244,20.0,24.0,-999,-99.99,,,-99.99,,2013-03-01 14:52:00,
2013-03-01 08:00:00,19.0,-99.9,-100.00,WSW,246,35.0,38.0,-999,-99.99,,,-99.99,,2013-03-01 15:00:00,
2013-03-01 08:52:00,19.0,-99.9,-100.00,WSW,246,35.0,38.0,-999,-99.99,,,-99.99,,2013-03-01 15:52:00,
2013-03-01 09:00:00,21.0,-99.9,-100.00,WSW,241,25.0,39.0,-999,-99.99,,,-99.99,,2013-03-01 16:00:00,
2013-03-01 09:52:00,21.0,-99.9,-100.00,WSW,241,25.0,39.0,-999,-99.99,,,-99.99,,2013-03-01 16:52:00,
2013-03-01 11:00:00,25.0,-99.9,-100.00,WSW,244,32.0,36.0,-999,-99.99,,,-99.99,,2013-03-01 18:00:00,
2013-03-01 11:53:00,25.0,-99.9,-100.00,WSW,244,32.0,36.0,-999,-99.99,,,-99.99,,2013-03-01 18:53:00,
2013-03-01 12:32:00,28.0,-99.9,-100.00,WSW,246,39.0,53.0,-999,-99.99,,,-99.99,,2013-03-01 19:32:00,
2013-03-01 12:42:00,28.0,-99.9,-100.00,WSW,246,39.0,53.0,-999,-99.99,,,-99.99,,2013-03-01 19:42:00,
2013-03-01 12:52:00,28.0,-99.9,-100.00,West,277,42.0,44.0,-999,-99.99,,,-99.99,,2013-03-01 19:52:00,
2013-03-01 13:00:00,30.0,-99.9,-100.00,West,273,27.0,41.0,-999,-99.99,,,-99.99,,2013-03-01 20:00:00,
2013-03-01 13:01:00,28.0,-99.9,-100.00,West,277,42.0,44.0,-999,-99.99,,,-99.99,,2013-03-01 20:01:00,
2013-03-01 13:52:00,30.0,-99.9,-100.00,West,273,27.0,41.0,-999,-99.99,,,-99.99,,2013-03-01 20:52:00,
2013-03-01 14:00:00,30.0,-99.9,-100.00,SW,233,31.0,40.0,-999,-99.99,,,-99.99,,2013-03-01 21:00:00,
2013-03-01 14:53:00,30.0,-99.9,-100.00,SW,233,31.0,40.0,-999,-99.99,,,-99.99,,2013-03-01 21:53:00,
2013-03-01 15:00:00,30.0,-99.9,-100.00,WSW,247,32.0,36.0,-999,-99.99,,,-99.99,,2013-03-01 22:00:00,
2013-03-01 15:52:00,30.0,-99.9,-100.00,WSW,247,32.0,36.0,-999,-99.99,,,-99.99,,2013-03-01 22:52:00,
2013-03-01 16:00:00,30.0,-99.9,-100.00,WSW,246,36.0,42.0,-999,-99.99,,,-99.99,,2013-03-01 23:00:00,
2013-03-01 16:52:00,30.0,-99.9,-100.00,WSW,246,36.0,42.0,-999,-99.99,,,-99.99,,2013-03-01 23:52:00,
2013-03-01 17:00:00,28.0,-99.9,-100.00,WSW,254,31.0,36.0,-999,-99.99,,,-99.99,,2013-03-02 00:00:00,
2013-03-01 17:32:00,28.0,-99.9,-100.00,WSW,254,31.0,36.0,-999,-99.99,,,-99.99,,2013-03-02 00:32:00,
2013-03-01 17:42:00,28.0,-99.9,-100.00,WSW,254,31.0,36.0,-999,-99.99,,,-99.99,,2013-03-02 00:42:00,
2013-03-01 17:52:00,28.0,-99.9,-100.00,WSW,254,31.0,36.0,-999,-99.99,,,-99.99,,2013-03-02 00:52:00,
2013-03-01 18:00:00,27.0,-99.9,-100.00,WSW,257,30.0,42.0,-999,-99.99,,,-99.99,,2013-03-02 01:00:00,
2013-03-01 18:52:00,27.0,-99.9,-100.00,WSW,257,30.0,42.0,-999,-99.99,,,-99.99,,2013-03-02 01:52:00,
2013-03-01 19:00:00,25.0,-99.9,-100.00,WSW,248,29.0,38.0,-999,-99.99,,,-99.99,,2013-03-02 02:00:00,
2013-03-01 19:53:00,25.0,-99.9,-100.00,WSW,248,29.0,38.0,-999,-99.99,,,-99.99,,2013-03-02 02:53:00,
2013-03-01 20:00:00,25.0,-99.9,-100.00,WSW,237,33.0,41.0,-999,-99.99,,,-99.99,,2013-03-02 03:00:00,
2013-03-01 20:53:00,25.0,-99.9,-100.00,WSW,237,33.0,41.0,-999,-99.99,,,-99.99,,2013-03-02 03:53:00,
2013-03-01 21:00:00,25.0,-99.9,-100.00,WSW,247,32.0,37.0,-999,-99.99,,,-99.99,,2013-03-02 04:00:00,
2013-03-01 21:52:00,25.0,-99.9,-100.00,WSW,247,32.0,37.0,-999,-99.99,,,-99.99,,2013-03-02 04:52:00,
2013-03-01 22:00:00,25.0,-99.9,-100.00,WSW,249,21.0,39.0,-999,-99.99,,,-99.99,,2013-03-02 05:00:00,
2013-03-01 22:52:00,25.0,-99.9,-100.00,WSW,249,21.0,39.0,-999,-99.99,,,-99.99,,2013-03-02 05:52:00,
2013-03-01 23:00:00,25.0,-99.9,-100.00,WSW,243,36.0,38.0,-999,-99.99,,,-99.99,,2013-03-02 06:00:00,
2013-03-01 23:52:00,25.0,-99.9,-100.00,WSW,243,36.0,38.0,-999,-99.99,,,-99.99,,2013-03-02 06:52:00,